Terminal Aerodrome Forecast
Issued by NWS

Home | Current Version | Previous Version | Text Only | Print | Product List | Glossary On
Versions: 1 2 3 4 5 6 7 8 9 10 11 12 13 14 15 16 17 18 19 20 21 22 23 24 25 26 27 28 29 30 31 32 33 34 35 36 37 38 39 40 41 42
764
FTUS41 KRNK 190738 AAD
TAFLWB
TAF AMD
KLWB 190738Z 1908/2006 29016G29KT P6SM -SHRA SCT015 OVC030
      TEMPO 1909/1911 4SM -SHRA OVC015
     FM191400 29016G26KT P6SM BKN040
     FM200200 30012G21KT P6SM SCT040=

USA.gov is the U.S. government's official web portal to all federal, state and local government web resources and services.